createdAt,value
2019-02-14T00:01:01.044Z,5.5
2019-02-14T00:06:56.032Z,9.61
2019-02-14T00:12:51.049Z,6.79
2019-02-14T00:18:46.633Z,8.28
2019-02-14T00:24:41.044Z,8.66
2019-02-14T00:30:36.042Z,9.8
2019-02-14T00:36:31.043Z,16.73
2019-02-14T00:42:26.094Z,10.34
2019-02-14T00:48:21.074Z,8.06
2019-02-14T00:54:16.137Z,5.46
2019-02-14T01:00:11.071Z,6.2
2019-02-14T01:06:06.056Z,5.6
2019-02-14T01:12:01.062Z,6.61
2019-02-14T01:17:56.084Z,6.7
2019-02-14T01:23:51.107Z,8.13
2019-02-14T01:29:46.171Z,7.71
2019-02-14T01:35:42.064Z,8.53
2019-02-14T01:41:36.097Z,7.57
2019-02-14T01:47:31.089Z,6.58
2019-02-14T01:53:26.087Z,6.42
2019-02-14T01:59:21.097Z,6.44
2019-02-14T02:05:16.117Z,8
2019-02-14T02:11:11.102Z,7.96
2019-02-14T02:17:06.132Z,9
2019-02-14T02:23:01.095Z,9.99
2019-02-14T02:28:56.106Z,8.26
2019-02-14T02:34:51.105Z,8.02
2019-02-14T02:40:46.111Z,7.62
2019-02-14T02:46:41.143Z,7.09
2019-02-14T02:52:36.131Z,7.07
2019-02-14T02:58:31.147Z,6.39
2019-02-14T03:04:26.128Z,6.46
2019-02-14T03:10:21.129Z,6.13
2019-02-14T03:16:16.129Z,8.42
2019-02-14T03:22:11.211Z,7.47
2019-02-14T03:28:06.123Z,8.16
2019-02-14T03:34:01.139Z,8.67
2019-02-14T03:39:56.211Z,8.78
2019-02-14T03:45:51.133Z,6.87
2019-02-14T03:51:46.219Z,7.7
2019-02-14T03:57:41.138Z,8.35
2019-02-14T04:03:36.152Z,9.14
2019-02-14T04:09:31.179Z,8.26
2019-02-14T04:15:26.155Z,7.6
2019-02-14T04:21:21.247Z,7.81
2019-02-14T04:27:16.171Z,7.24
2019-02-14T04:33:11.170Z,7.65
2019-02-14T04:39:06.186Z,7.25
2019-02-14T04:45:01.174Z,7.1
2019-02-14T04:50:56.192Z,8.75
2019-02-14T04:56:51.182Z,9.05
2019-02-14T05:02:46.188Z,9.1
2019-02-14T05:08:41.187Z,8.33
2019-02-14T05:14:36.183Z,7.5
2019-02-14T05:20:31.203Z,10.37
2019-02-14T05:26:26.227Z,44.09
2019-02-14T05:32:21.201Z,37.6
2019-02-14T05:38:16.237Z,21.83
2019-02-14T05:44:11.219Z,22.65
2019-02-14T05:50:06.266Z,18.3
2019-02-14T05:56:01.252Z,15.25
2019-02-14T06:01:56.222Z,15.99
2019-02-14T06:07:51.229Z,16.69
2019-02-14T06:13:46.238Z,17.14
2019-02-14T06:19:41.239Z,17.67
2019-02-14T06:25:36.241Z,14.23
2019-02-14T06:31:31.235Z,10.33
2019-02-14T06:37:26.221Z,10.8
2019-02-14T06:43:21.217Z,11.32
2019-02-14T06:49:16.238Z,14.26
2019-02-14T06:55:11.234Z,11.61
2019-02-14T07:01:06.257Z,11.38
2019-02-14T07:07:01.267Z,13.3
2019-02-14T07:12:56.268Z,12.83
2019-02-14T07:18:51.270Z,12.77
2019-02-14T07:24:46.279Z,13.7
2019-02-14T07:30:41.293Z,12.26
2019-02-14T07:36:36.276Z,11.63
2019-02-14T07:42:31.273Z,14.33
2019-02-14T07:48:26.262Z,17.15
2019-02-14T07:54:21.293Z,16.7
2019-02-14T08:00:16.262Z,16.15
2019-02-14T08:06:11.275Z,16.6
2019-02-14T08:12:06.273Z,20.67
2019-02-14T08:18:01.290Z,19.2
2019-02-14T08:23:56.303Z,20.12
2019-02-14T08:29:51.749Z,22.65
2019-02-14T08:35:46.310Z,24.15
2019-02-14T08:41:41.314Z,17.9
2019-02-14T08:47:36.323Z,16.35
2019-02-14T08:53:31.300Z,16.94
2019-02-14T08:59:26.305Z,15.71
2019-02-14T09:05:21.317Z,21.25
2019-02-14T09:11:16.343Z,23.5
2019-02-14T09:17:11.325Z,24.42
2019-02-14T09:23:06.338Z,28.23
2019-02-14T09:29:01.339Z,41.1
2019-02-14T09:34:56.319Z,51.27
2019-02-14T09:40:51.343Z,49.01
2019-02-14T09:46:46.361Z,50.79
2019-02-14T09:52:41.352Z,57.75
2019-02-14T09:58:36.339Z,42.39
2019-02-14T10:04:31.341Z,39.87
2019-02-14T10:10:26.336Z,33.59
2019-02-14T10:16:21.348Z,31.06
2019-02-14T10:22:16.353Z,29.23
2019-02-14T10:28:11.362Z,40.82
2019-02-14T10:34:06.350Z,33.89
2019-02-14T10:40:01.404Z,30.87
2019-02-14T10:45:56.407Z,25.99
2019-02-14T10:51:51.373Z,28.02
2019-02-14T10:57:46.374Z,25.38
2019-02-14T11:03:41.368Z,23.73
2019-02-14T11:09:36.394Z,14.12
2019-02-14T11:15:31.404Z,22.62
2019-02-14T11:21:26.407Z,17.79
2019-02-14T11:27:21.393Z,17
2019-02-14T11:33:16.420Z,12.89
2019-02-14T11:39:11.417Z,16.13
2019-02-14T11:45:06.401Z,17.1
2019-02-14T11:51:01.440Z,17.14
2019-02-14T11:56:56.435Z,17.96
2019-02-14T12:02:55.321Z,14.88
2019-02-14T12:08:53.248Z,9.3
2019-02-14T12:14:41.404Z,13.23
2019-02-14T12:20:36.432Z,9.72
2019-02-14T12:26:31.413Z,10.05
2019-02-14T12:32:26.437Z,10.89
2019-02-14T12:38:21.418Z,10.4
2019-02-14T12:44:16.438Z,12.18
2019-02-14T12:50:11.416Z,10.8
2019-02-14T12:56:06.546Z,10.55
2019-02-14T13:02:01.445Z,10.37
2019-02-14T13:07:56.462Z,11.18
2019-02-14T13:13:51.440Z,11.32
2019-02-14T13:19:46.440Z,15.35
2019-02-14T13:25:41.457Z,11.13
2019-02-14T13:31:36.479Z,10.42
2019-02-14T13:37:31.496Z,10.27
2019-02-14T13:43:26.457Z,9.54
2019-02-14T13:49:21.470Z,10.17
2019-02-14T13:55:16.520Z,10.73
2019-02-14T14:01:11.453Z,10.53
2019-02-14T14:07:06.513Z,10.18
2019-02-14T14:13:01.488Z,11.94
2019-02-14T14:18:56.529Z,12.56
2019-02-14T14:24:51.489Z,9.4
2019-02-14T14:30:46.498Z,9.79
2019-02-14T14:36:41.485Z,12.6
2019-02-14T14:42:36.525Z,18.05
2019-02-14T14:48:31.490Z,8.68
2019-02-14T14:54:26.516Z,11.7
2019-02-14T15:00:21.494Z,14.56
2019-02-14T15:06:16.543Z,24.73
2019-02-14T15:12:11.539Z,13.54
2019-02-14T15:18:06.513Z,12.68
2019-02-14T15:24:01.513Z,12.77
2019-02-14T15:29:56.573Z,10.31
2019-02-14T15:35:51.528Z,10.48
2019-02-14T15:41:46.535Z,10.57
2019-02-14T15:47:41.541Z,10.47
2019-02-14T15:53:36.531Z,11.73
2019-02-14T15:59:31.529Z,9.58
2019-02-14T16:05:26.599Z,7.28
2019-02-14T16:11:21.530Z,8.92
2019-02-14T16:17:16.532Z,8.14
2019-02-14T16:23:11.570Z,12.33
2019-02-14T16:29:06.538Z,10.43
2019-02-14T16:35:01.612Z,13.46
2019-02-14T16:40:56.585Z,28.91
2019-02-14T16:46:51.558Z,22.09
2019-02-14T16:52:46.559Z,19.68
2019-02-14T16:58:41.605Z,27.47
2019-02-14T17:04:36.582Z,35.55
2019-02-14T17:10:36.875Z,26.13
2019-02-14T17:16:26.628Z,31.34
2019-02-14T17:22:21.610Z,17.76
2019-02-14T17:28:16.604Z,20.78
2019-02-14T17:34:11.579Z,23.41
2019-02-14T17:40:06.597Z,25.26
2019-02-14T17:46:01.620Z,23.44
2019-02-14T17:51:56.597Z,17.82
2019-02-14T17:57:51.668Z,11.83
2019-02-14T18:03:46.609Z,14.56
2019-02-14T18:09:41.652Z,19.71
2019-02-14T18:15:36.606Z,16.06
2019-02-14T18:21:31.578Z,11.04
2019-02-14T18:27:26.595Z,13.86
2019-02-14T18:33:21.612Z,12.28
2019-02-14T18:39:16.603Z,13.37
2019-02-14T18:45:11.600Z,11.24
2019-02-14T18:51:06.628Z,15.43
2019-02-14T18:57:01.649Z,16.05
2019-02-14T19:02:56.623Z,25.06
2019-02-14T19:08:51.615Z,34.04
2019-02-14T19:14:46.666Z,31.93
2019-02-14T19:20:41.670Z,20.56
2019-02-14T19:26:36.657Z,31.24
2019-02-14T19:32:31.675Z,43.12
2019-02-14T19:38:26.639Z,40.73
2019-02-14T19:44:21.675Z,32.2
2019-02-14T19:50:16.652Z,31.82
2019-02-14T19:56:11.659Z,22.93
2019-02-14T20:02:06.638Z,30.19
2019-02-14T20:08:01.649Z,24.78
2019-02-14T20:13:56.685Z,29.39
2019-02-14T20:19:51.761Z,23.89
2019-02-14T20:25:46.707Z,20.96
2019-02-14T20:31:41.711Z,12.27
2019-02-14T20:37:36.665Z,20.88
2019-02-14T20:43:31.699Z,18.3
2019-02-14T20:49:26.679Z,19.1
2019-02-14T20:55:21.688Z,16.18
2019-02-14T21:01:16.699Z,22.19
2019-02-14T21:07:11.707Z,30.12
2019-02-14T21:13:06.732Z,34.7
2019-02-14T21:19:01.746Z,39.1
2019-02-14T21:24:56.703Z,28.1
2019-02-14T21:30:51.735Z,28.15
2019-02-14T21:36:46.773Z,18.46
2019-02-14T21:42:41.751Z,16.3
2019-02-14T21:48:36.729Z,16.87
2019-02-14T21:54:31.723Z,19.54
2019-02-14T22:00:26.730Z,55
2019-02-14T22:06:21.722Z,18.64
2019-02-14T22:12:16.764Z,16.64
2019-02-14T22:18:11.761Z,24.52
2019-02-14T22:24:06.735Z,27.22
2019-02-14T22:30:01.746Z,23.64
2019-02-14T22:35:56.747Z,25.75
2019-02-14T22:41:51.781Z,23.91
2019-02-14T22:47:46.732Z,22.53
2019-02-14T22:53:41.763Z,27.74
2019-02-14T22:59:36.731Z,71.24
2019-02-14T23:05:31.853Z,42.86
2019-02-14T23:11:26.757Z,37.53
2019-02-14T23:17:21.741Z,31.09
2019-02-14T23:23:16.760Z,31.61
2019-02-14T23:29:11.750Z,25.63
2019-02-14T23:35:06.781Z,17.37
2019-02-14T23:41:01.755Z,15.74
2019-02-14T23:46:56.770Z,17.17
2019-02-14T23:52:51.810Z,15.32
2019-02-14T23:58:46.774Z,14.93
